Time;durP1;ratioP1;P1;durP2;ratioP2;P2;SDS_P1;SDS_P2;PMS_P1;PMS_P2;Temp;Humidity;BMP_temperature;BMP_pressure;BME280_temperature;BME280_humidity;BME280_pressure;Samples;Min_cycle;Max_cycle;Signal;HPM_P1;HPM_P2
2021/05/21 00:01:17;;;;;;;5.40;4.43;;;;;;;20.41;57.84;98246.63;3324798;29;20042;-72
2021/05/21 00:02:58;;;;;;;6.40;5.17;;;;;;;20.34;58.47;98243.50;3324971;29;20050;-69
2021/05/21 00:04:38;;;;;;;11.73;6.00;;;;;;;20.30;57.92;98241.69;3324977;29;20074;-73
2021/05/21 00:06:19;;;;;;;6.10;5.50;;;;;;;20.22;57.62;98249.38;3324748;29;20057;-72
2021/05/21 00:08:00;;;;;;;7.17;5.17;;;;;;;20.07;58.21;98240.66;3324963;29;20073;-72
2021/05/21 00:09:40;;;;;;;5.63;4.80;;;;;;;19.92;58.21;98245.19;3324973;29;20042;-72
2021/05/21 00:11:21;;;;;;;5.30;4.80;;;;;;;19.78;58.38;98252.41;3324743;29;20053;-71
2021/05/21 00:13:02;;;;;;;8.80;4.90;;;;;;;19.65;58.83;98251.19;3325009;29;20056;-73
2021/05/21 00:14:43;;;;;;;6.57;4.80;;;;;;;19.57;59.09;98244.53;3324761;29;20042;-71
2021/05/21 00:16:23;;;;;;;5.70;4.95;;;;;;;19.50;58.74;98246.75;3325673;29;20122;-72
2021/05/21 00:18:04;;;;;;;8.93;5.68;;;;;;;19.42;59.25;98247.41;3326223;29;20038;-72
2021/05/21 00:19:45;;;;;;;8.03;5.20;;;;;;;19.27;59.34;98247.56;3325063;29;20049;-72
2021/05/21 00:21:25;;;;;;;6.70;4.60;;;;;;;19.15;59.64;98245.25;3325456;29;20042;-72
2021/05/21 00:23:08;;;;;;;6.05;4.63;;;;;;;19.06;60.09;98247.00;3325744;29;20513;-72
2021/05/21 00:24:48;;;;;;;5.60;4.73;;;;;;;19.01;60.34;98249.75;3324853;29;20498;-72
2021/05/21 00:26:29;;;;;;;6.30;4.25;;;;;;;18.98;60.24;98247.63;3324698;29;20126;-73
2021/05/21 00:28:10;;;;;;;4.75;3.92;;;;;;;18.92;60.31;98236.03;3324479;29;20142;-72
2021/05/21 00:29:51;;;;;;;7.37;4.17;;;;;;;19.01;60.95;98247.84;3322866;29;20046;-73
2021/05/21 00:31:31;;;;;;;6.32;4.13;;;;;;;19.02;60.46;98252.13;3324124;29;20522;-73
2021/05/21 00:33:27;;;;;;;5.70;4.18;;;;;;;18.97;60.54;98249.47;3324206;29;20043;-73
2021/05/21 00:35:08;;;;;;;7.83;4.43;;;;;;;18.90;60.94;98249.84;3324621;29;20042;-73
2021/05/21 00:36:48;;;;;;;5.18;4.05;;;;;;;18.85;60.84;98254.47;3324777;29;20046;-73
2021/05/21 00:38:29;;;;;;;5.60;4.20;;;;;;;18.84;60.99;98255.56;3324472;29;20038;-72
2021/05/21 00:40:10;;;;;;;6.47;3.90;;;;;;;18.82;60.70;98249.63;3324527;29;20046;-73
2021/05/21 00:41:51;;;;;;;5.05;3.90;;;;;;;18.82;61.12;98258.56;3324597;29;20093;-73
2021/05/21 00:43:32;;;;;;;4.35;3.90;;;;;;;18.78;60.94;98262.09;3324188;29;20069;-72
2021/05/21 00:45:13;;;;;;;6.60;4.22;;;;;;;18.70;60.78;98256.19;3324289;29;20054;-72
2021/05/21 00:46:54;;;;;;;3.78;3.17;;;;;;;18.47;60.77;98235.31;3324469;29;20053;-73
2021/05/21 00:48:34;;;;;;;4.20;3.80;;;;;;;18.56;61.31;98257.94;3323994;29;20054;-72
2021/05/21 00:50:15;;;;;;;5.28;3.70;;;;;;;18.52;60.91;98270.38;3324331;29;20039;-74
2021/05/21 00:51:56;;;;;;;3.22;2.42;;;;;;;18.43;61.28;98272.88;3324573;29;20079;-72
2021/05/21 00:53:37;;;;;;;4.93;2.42;;;;;;;18.33;61.05;98277.50;3323440;29;20553;-74
2021/05/21 00:55:19;;;;;;;3.63;2.22;;;;;;;18.23;60.74;98278.41;3323102;29;20049;-73
2021/05/21 00:57:00;;;;;;;;;;;;;;;18.24;60.65;98278.09;3324640;29;20460;-73
2021/05/21 00:58:40;;;;;;;3.88;1.00;;;;;;;18.07;60.61;98275.78;3322728;29;19960;-69
2021/05/21 01:00:21;;;;;;;2.05;1.63;;;;;;;17.92;60.63;98283.16;3332219;29;20042;-73
2021/05/21 01:02:03;;;;;;;3.95;1.58;;;;;;;17.74;60.82;98273.78;3326687;29;20049;-72
2021/05/21 01:03:44;;;;;;;3.65;1.38;;;;;;;17.68;60.93;98294.50;3318561;29;20442;-73
2021/05/21 01:05:24;;;;;;;2.15;1.25;;;;;;;17.66;61.12;98291.31;3314439;29;20125;-74
2021/05/21 01:07:06;;;;;;;2.63;1.67;;;;;;;17.65;61.12;98297.75;3324301;29;20050;-73
2021/05/21 01:08:46;;;;;;;4.43;1.10;;;;;;;17.65;61.28;98289.69;3316328;29;20054;-71
2021/05/21 01:10:27;;;;;;;1.13;1.02;;;;;;;17.65;61.07;98289.69;3323193;29;20141;-72
2021/05/21 01:12:08;;;;;;;1.70;1.60;;;;;;;17.67;61.44;98303.69;3324307;29;20081;-72
2021/05/21 01:13:49;;;;;;;3.38;1.63;;;;;;;17.67;61.12;98299.09;3324059;29;20411;-74
2021/05/21 01:15:37;;;;;;;2.60;1.00;;;;;;;17.67;60.66;98298.31;3324419;29;20041;-73
2021/05/21 01:17:19;;;;;;;2.92;1.35;;;;;;;17.65;60.58;98303.16;3324249;29;20467;-73
2021/05/21 01:19:04;;;;;;;1.27;1.17;;;;;;;17.62;60.82;98290.25;3324437;29;20054;-75
2021/05/21 01:20:45;;;;;;;1.65;1.10;;;;;;;17.59;60.43;98296.19;3323615;29;20053;-73
2021/05/21 01:22:25;;;;;;;1.20;1.10;;;;;;;17.56;60.85;98292.16;3332886;29;20115;-74
2021/05/21 01:24:07;;;;;;;1.52;1.35;;;;;;;17.57;60.93;98291.06;3326395;29;20076;-73
2021/05/21 01:25:48;;;;;;;1.60;1.20;;;;;;;17.62;60.76;98288.34;3317582;29;20042;-73
2021/05/21 01:27:29;;;;;;;1.30;1.23;;;;;;;17.64;60.72;98293.47;3323865;29;20483;-73
2021/05/21 01:29:09;;;;;;;1.42;1.00;;;;;;;17.61;60.50;98285.94;3323837;29;20070;-74
2021/05/21 01:30:51;;;;;;;1.10;1.00;;;;;;;17.52;60.25;98295.66;3324442;29;20038;-72
2021/05/21 01:32:31;;;;;;;1.15;1.08;;;;;;;17.55;61.10;98295.91;3324136;29;20133;-72
2021/05/21 01:34:13;;;;;;;1.20;0.98;;;;;;;17.55;60.53;98305.88;3324009;29;20050;-71
2021/05/21 01:35:54;;;;;;;2.70;0.90;;;;;;;17.50;60.25;98313.97;3323824;29;20525;-73
2021/05/21 01:37:35;;;;;;;0.80;0.80;;;;;;;17.50;60.49;98306.69;3324173;29;20138;-73
2021/05/21 01:39:15;;;;;;;0.82;0.80;;;;;;;17.44;60.14;98314.00;3322373;29;20091;-73
2021/05/21 01:40:57;;;;;;;1.95;1.40;;;;;;;17.41;59.97;98306.47;3322946;29;20046;-73
2021/05/21 01:42:38;;;;;;;0.80;0.80;;;;;;;17.42;60.38;98307.25;3325462;29;20521;-72
2021/05/21 01:44:19;;;;;;;2.78;0.90;;;;;;;17.40;59.77;98301.38;3325433;29;20500;-73
2021/05/21 01:46:00;;;;;;;1.38;0.82;;;;;;;17.36;59.50;98309.16;3326402;29;20050;-74
2021/05/21 01:47:41;;;;;;;0.90;0.90;;;;;;;17.25;59.69;98310.28;3325856;29;20082;-74
2021/05/21 01:49:21;;;;;;;1.85;0.90;;;;;;;17.23;59.73;98320.50;3326588;29;20046;-73
2021/05/21 01:51:03;;;;;;;2.15;1.05;;;;;;;17.18;59.77;98312.44;3327017;29;20392;-72
2021/05/21 01:52:49;;;;;;;3.67;1.10;;;;;;;17.13;59.76;98312.44;3326713;29;20046;-73
2021/05/21 01:54:30;;;;;;;1.27;1.17;;;;;;;17.06;59.90;98314.59;3327752;29;20143;-69
2021/05/21 01:56:11;;;;;;;2.28;0.90;;;;;;;17.03;60.52;98309.75;3327416;29;20049;-74
2021/05/21 01:57:52;;;;;;;1.20;0.80;;;;;;;17.05;60.26;98305.72;3327205;29;20133;-73
2021/05/21 01:59:32;;;;;;;1.08;0.80;;;;;;;17.07;59.72;98300.06;3326995;29;20520;-74
2021/05/21 02:01:13;;;;;;;0.80;0.80;;;;;;;17.09;59.93;98309.50;3327039;29;20057;-74
2021/05/21 02:02:54;;;;;;;1.00;0.75;;;;;;;17.12;59.70;98308.16;3326625;29;20034;-73
2021/05/21 02:04:43;;;;;;;1.08;0.95;;;;;;;17.22;60.21;98318.91;3326726;29;20042;-70
2021/05/21 02:06:25;;;;;;;0.70;0.70;;;;;;;17.22;59.86;98310.81;3326840;29;20510;-72
2021/05/21 02:08:06;;;;;;;2.25;0.77;;;;;;;17.27;60.42;98316.19;3326962;29;20053;-74
2021/05/21 02:09:47;;;;;;;0.68;0.60;;;;;;;17.36;59.80;98311.84;3320236;29;20617;-75
2021/05/21 02:11:27;;;;;;;0.70;0.70;;;;;;;17.38;59.40;98296.25;3326905;29;20529;-74
2021/05/21 02:13:09;;;;;;;1.83;0.73;;;;;;;17.41;59.10;98314.53;3326118;29;20503;-74
2021/05/21 02:14:50;;;;;;;1.13;0.60;;;;;;;17.44;58.90;98307.81;3326357;29;20050;-73
2021/05/21 02:16:31;;;;;;;4.55;1.15;;;;;;;17.39;58.71;98311.31;3326028;29;20042;-71
2021/05/21 02:18:12;;;;;;;1.00;0.60;;;;;;;17.34;58.84;98310.50;3325961;29;20045;-71
2021/05/21 02:19:57;;;;;;;3.38;0.70;;;;;;;17.26;58.67;98306.50;3325340;29;20521;-72
2021/05/21 02:21:40;;;;;;;0.88;0.88;;;;;;;17.23;58.75;98310.53;3325735;29;20137;-71
2021/05/21 02:23:21;;;;;;;1.75;0.60;;;;;;;17.27;58.71;98310.81;3325693;29;20057;-72
2021/05/21 02:25:02;;;;;;;1.27;0.73;;;;;;;17.30;59.25;98304.88;3326386;29;20506;-72
2021/05/21 02:26:43;;;;;;;1.20;0.63;;;;;;;17.32;58.97;98301.91;3324872;29;20039;-71
2021/05/21 02:28:23;;;;;;;2.72;0.85;;;;;;;17.39;58.48;98310.50;3321153;29;21562;-73
2021/05/21 02:30:05;;;;;;;1.60;0.60;;;;;;;17.42;58.66;98312.66;3325332;29;20467;-73
2021/05/21 02:31:46;;;;;;;0.50;0.50;;;;;;;17.47;58.43;98309.13;3319026;29;20125;-73
2021/05/21 02:33:27;;;;;;;0.60;0.60;;;;;;;17.40;58.21;98304.84;3325636;29;20046;-74
2021/05/21 02:35:10;;;;;;;1.85;0.68;;;;;;;17.40;58.70;98307.56;3325084;29;20085;-72
2021/05/21 02:36:51;;;;;;;1.05;0.75;;;;;;;17.40;58.33;98307.56;3321620;29;20042;-72
2021/05/21 02:38:31;;;;;;;0.75;0.75;;;;;;;17.38;58.35;98312.41;3325761;29;20086;-74
2021/05/21 02:40:13;;;;;;;1.58;0.90;;;;;;;17.38;58.33;98304.31;3325836;29;20073;-72
2021/05/21 02:41:54;;;;;;;1.25;0.85;;;;;;;17.37;58.49;98310.78;3326045;29;20042;-72
2021/05/21 02:43:34;;;;;;;1.20;0.60;;;;;;;17.36;58.38;98314.56;3326080;29;20077;-72
2021/05/21 02:45:15;;;;;;;0.65;0.65;;;;;;;17.37;58.56;98310.78;3325603;29;20050;-72
2021/05/21 02:46:56;;;;;;;1.90;0.90;;;;;;;17.39;58.77;98305.13;3325785;29;20049;-71
2021/05/21 02:48:37;;;;;;;0.70;0.70;;;;;;;17.43;58.76;98308.91;3325482;29;20515;-72
2021/05/21 02:50:17;;;;;;;0.70;0.70;;;;;;;17.42;58.58;98308.09;3325149;29;20054;-73
2021/05/21 02:51:58;;;;;;;0.98;0.90;;;;;;;17.42;58.79;98313.47;3326176;29;20050;-72
2021/05/21 02:53:39;;;;;;;1.95;0.88;;;;;;;17.35;58.63;98307.56;3324867;29;20065;-69
2021/05/21 02:55:19;;;;;;;1.00;0.93;;;;;;;17.33;58.56;98314.31;3325282;29;20110;-72
2021/05/21 02:57:00;;;;;;;1.55;1.20;;;;;;;17.23;59.03;98312.44;3324929;29;20507;-72
2021/05/21 02:58:41;;;;;;;0.90;0.90;;;;;;;17.13;59.11;98317.81;3325348;29;20034;-73
2021/05/21 03:00:21;;;;;;;1.35;0.90;;;;;;;17.08;59.31;98317.81;3324832;29;20497;-72
2021/05/21 03:02:02;;;;;;;0.77;0.77;;;;;;;17.04;59.42;98324.81;3324339;29;20503;-72
2021/05/21 03:03:43;;;;;;;2.10;1.10;;;;;;;17.02;59.59;98329.69;3324433;29;20049;-72
2021/05/21 03:05:23;;;;;;;1.83;0.80;;;;;;;17.02;59.89;98317.03;3325182;29;20057;-73
2021/05/21 03:07:04;;;;;;;1.17;1.00;;;;;;;16.94;59.79;98323.75;3325537;29;20430;-72
2021/05/21 03:08:45;;;;;;;1.50;0.80;;;;;;;16.91;60.24;98323.47;3318249;29;20422;-72
2021/05/21 03:10:27;;;;;;;1.35;0.95;;;;;;;16.87;60.37;98319.72;3317928;29;20602;-72
2021/05/21 03:12:09;;;;;;;1.85;0.88;;;;;;;16.87;60.84;98317.84;3325418;29;20046;-72
2021/05/21 03:13:50;;;;;;;0.70;0.70;;;;;;;16.90;60.36;98319.97;3325284;29;20053;-73
2021/05/21 03:15:31;;;;;;;1.83;0.80;;;;;;;16.87;60.67;98317.84;3324285;29;20034;-72
2021/05/21 03:17:11;;;;;;;0.70;0.70;;;;;;;16.91;60.52;98336.94;3324877;29;20050;-73
2021/05/21 03:18:52;;;;;;;1.13;0.80;;;;;;;16.91;60.57;98327.00;3325769;29;20042;-73
2021/05/21 03:20:33;;;;;;;0.60;0.60;;;;;;;16.92;60.60;98328.59;3325145;29;20070;-73
2021/05/21 03:22:14;;;;;;;1.38;0.90;;;;;;;16.90;60.70;98327.25;3324512;29;20042;-73
2021/05/21 03:23:54;;;;;;;0.63;0.63;;;;;;;16.85;60.78;98325.38;3324930;29;20129;-73
2021/05/21 03:25:40;;;;;;;0.90;0.90;;;;;;;16.75;61.08;98326.16;3325300;29;20046;-73
2021/05/21 03:27:21;;;;;;;0.80;0.80;;;;;;;16.77;60.67;98317.81;3324287;29;20559;-72
2021/05/21 03:29:02;;;;;;;0.70;0.70;;;;;;;16.76;60.69;98326.97;3320638;29;20058;-73
2021/05/21 03:30:43;;;;;;;2.83;1.02;;;;;;;16.72;60.89;98328.56;3324646;29;20072;-73
2021/05/21 03:32:23;;;;;;;4.15;1.00;;;;;;;16.77;61.42;98325.88;3324907;29;20121;-74
2021/05/21 03:34:04;;;;;;;1.02;1.00;;;;;;;16.86;61.27;98318.91;3325091;29;20054;-73
2021/05/21 03:35:45;;;;;;;1.70;0.90;;;;;;;16.90;60.76;98333.44;3324255;29;20049;-74
2021/05/21 03:37:26;;;;;;;1.27;0.85;;;;;;;16.91;60.73;98340.44;3324098;29;20580;-73
2021/05/21 03:39:08;;;;;;;1.10;0.70;;;;;;;16.89;60.80;98320.28;3311415;29;20081;-73
2021/05/21 03:40:49;;;;;;;2.47;0.80;;;;;;;16.87;61.10;98333.19;3322799;29;20141;-74
2021/05/21 03:42:29;;;;;;;1.80;0.77;;;;;;;16.86;60.83;98331.56;3324688;29;20054;-74
2021/05/21 03:44:10;;;;;;;0.63;0.63;;;;;;;16.81;60.95;98324.31;3324667;29;20047;-73
2021/05/21 03:45:51;;;;;;;2.05;0.80;;;;;;;16.87;61.19;98333.97;3324831;29;20429;-73
2021/05/21 03:47:33;;;;;;;0.90;0.77;;;;;;;16.87;61.11;98333.97;3325146;29;20430;-73
2021/05/21 03:49:16;;;;;;;;;;;;;;;16.95;60.77;98330.75;3323521;29;20058;-73
2021/05/21 03:50:56;;;;;;;0.75;0.70;;;;;;;16.92;61.20;98333.97;3320899;29;19924;-74
2021/05/21 03:52:37;;;;;;;0.60;0.60;;;;;;;16.94;61.45;98337.22;3317070;29;20049;-72
2021/05/21 03:54:18;;;;;;;1.15;1.13;;;;;;;16.91;61.34;98339.63;3324161;29;20140;-73
2021/05/21 03:55:58;;;;;;;0.63;0.63;;;;;;;16.78;61.28;98327.53;3324521;29;20094;-74
2021/05/21 03:57:42;;;;;;;0.50;0.50;;;;;;;16.75;61.53;98336.09;3324658;29;20035;-73
2021/05/21 03:59:23;;;;;;;1.73;0.60;;;;;;;16.77;61.71;98331.25;3313097;29;20050;-73
2021/05/21 04:01:04;;;;;;;1.60;0.70;;;;;;;16.77;61.86;98339.31;3331831;29;20132;-73
2021/05/21 04:02:49;;;;;;;1.98;0.70;;;;;;;16.77;61.83;98328.56;3327271;29;20065;-72
2021/05/21 04:04:31;;;;;;;0.40;0.40;;;;;;;16.74;61.76;98329.09;3323642;29;20091;-73
2021/05/21 04:06:12;;;;;;;4.10;0.60;;;;;;;16.75;61.63;98330.72;3324083;29;20053;-73
2021/05/21 04:07:52;;;;;;;0.70;0.65;;;;;;;16.72;61.73;98339.31;3324380;29;20075;-73
2021/05/21 04:09:33;;;;;;;2.22;0.50;;;;;;;16.66;62.13;98337.72;3324514;29;20048;-72
2021/05/21 04:11:14;;;;;;;1.30;0.80;;;;;;;16.68;61.95;98346.34;3323519;29;20077;-73
2021/05/21 04:12:54;;;;;;;0.77;0.60;;;;;;;16.74;62.04;98342.56;3325101;29;20047;-74
2021/05/21 04:14:35;;;;;;;0.80;0.60;;;;;;;16.74;62.25;98343.34;3325399;29;20524;-73
2021/05/21 04:16:16;;;;;;;0.85;0.50;;;;;;;16.78;62.02;98349.06;3325209;29;20049;-73
2021/05/21 04:17:57;;;;;;;1.92;0.82;;;;;;;16.75;62.05;98344.16;3324257;29;20157;-73
2021/05/21 04:19:37;;;;;;;1.75;0.60;;;;;;;16.74;61.80;98345.25;3319079;29;20050;-72
2021/05/21 04:21:18;;;;;;;1.75;0.80;;;;;;;16.74;62.07;98353.31;3324610;29;20080;-73
2021/05/21 04:23:03;;;;;;;0.87;0.70;;;;;;;16.74;61.99;98353.31;3324499;29;20066;-73
2021/05/21 04:24:44;;;;;;;0.70;0.70;;;;;;;16.73;62.38;98355.22;3324207;29;20042;-72
2021/05/21 04:26:26;;;;;;;0.93;0.63;;;;;;;16.68;62.33;98351.72;3322712;29;20082;-74
2021/05/21 04:28:07;;;;;;;1.13;1.02;;;;;;;16.78;62.25;98357.94;3323669;29;20039;-74
2021/05/21 04:29:47;;;;;;;1.98;0.90;;;;;;;16.81;62.22;98363.88;3323029;29;20080;-73
2021/05/21 04:31:28;;;;;;;2.30;1.73;;;;;;;16.77;62.27;98353.63;3322687;29;20044;-72
2021/05/21 04:33:09;;;;;;;2.83;0.65;;;;;;;16.89;61.86;98369.50;3322043;29;20046;-73
2021/05/21 04:34:50;;;;;;;2.05;0.90;;;;;;;16.88;61.95;98365.22;3323814;29;20071;-74
2021/05/21 04:36:31;;;;;;;1.27;0.77;;;;;;;16.86;61.99;98370.06;3323234;29;20039;-72
2021/05/21 04:38:12;;;;;;;0.95;0.80;;;;;;;16.92;61.82;98365.47;3323918;29;20050;-73
2021/05/21 04:39:52;;;;;;;1.88;0.75;;;;;;;16.92;61.68;98368.97;3324309;29;20510;-74
2021/05/21 04:41:33;;;;;;;3.08;0.98;;;;;;;16.93;61.86;98370.56;3324568;29;20042;-73
2021/05/21 04:43:14;;;;;;;2.15;0.70;;;;;;;16.90;61.66;98359.53;3323776;29;20507;-74
2021/05/21 04:44:55;;;;;;;3.10;0.70;;;;;;;16.95;62.05;98363.03;3330413;29;20136;-72
2021/05/21 04:46:35;;;;;;;3.72;0.90;;;;;;;16.93;62.04;98370.56;3324461;29;20065;-73
2021/05/21 04:48:16;;;;;;;2.72;0.75;;;;;;;16.94;62.01;98368.72;3323973;29;20057;-74
2021/05/21 04:49:59;;;;;;;3.13;0.60;;;;;;;16.97;61.99;98377.03;3324525;29;20125;-74
2021/05/21 04:51:40;;;;;;;1.10;0.90;;;;;;;17.02;62.04;98362.00;3324191;29;20085;-75
2021/05/21 04:53:20;;;;;;;0.75;0.70;;;;;;;17.05;61.81;98361.44;3322740;29;20575;-71
2021/05/21 04:55:01;;;;;;;3.78;0.88;;;;;;;17.12;61.75;98365.47;3323853;29;20463;-72
2021/05/21 04:56:43;;;;;;;4.20;0.73;;;;;;;17.13;61.47;98369.78;3322963;29;20062;-74
2021/05/21 04:58:23;;;;;;;3.78;0.82;;;;;;;17.17;61.42;98370.06;3318162;29;21797;-72
2021/05/21 05:00:05;;;;;;;1.30;1.17;;;;;;;17.17;61.25;98378.13;3319266;29;20046;-74
2021/05/21 05:01:45;;;;;;;1.15;0.77;;;;;;;17.18;61.48;98374.34;3324548;29;20056;-71
2021/05/21 05:03:26;;;;;;;2.47;0.90;;;;;;;17.19;61.64;98370.56;3323830;29;20043;-72
2021/05/21 05:05:07;;;;;;;2.78;1.00;;;;;;;17.18;61.31;98379.75;3324450;29;20042;-75
2021/05/21 05:06:48;;;;;;;2.92;0.80;;;;;;;17.19;61.67;98386.72;3323817;29;20043;-72
2021/05/21 05:08:30;;;;;;;0.70;0.65;;;;;;;17.21;61.88;98376.50;3323025;29;20042;-73
2021/05/21 05:10:11;;;;;;;3.65;0.80;;;;;;;17.16;61.83;98366.53;3323565;29;20464;-72
2021/05/21 05:11:52;;;;;;;1.05;0.98;;;;;;;17.24;61.68;98384.03;3323369;29;20433;-72
2021/05/21 05:13:33;;;;;;;2.33;1.13;;;;;;;16.92;61.42;98343.94;3323983;29;20042;-74
2021/05/21 05:15:14;;;;;;;5.47;0.77;;;;;;;17.22;61.27;98388.91;3323671;29;20475;-74
2021/05/21 05:16:55;;;;;;;1.50;1.27;;;;;;;17.21;61.44;98398.03;3323369;29;20046;-74
2021/05/21 05:18:36;;;;;;;5.20;0.90;;;;;;;17.17;61.74;98392.41;3323726;29;20537;-72
2021/05/21 05:20:21;;;;;;;1.23;0.80;;;;;;;17.14;61.89;98397.50;3323282;29;20074;-71
2021/05/21 05:22:02;;;;;;;1.48;0.85;;;;;;;17.15;62.08;98393.75;3322720;29;20071;-73
2021/05/21 05:23:43;;;;;;;2.45;0.73;;;;;;;17.09;62.23;98394.81;3323443;29;20046;-73
2021/05/21 05:25:24;;;;;;;8.18;0.73;;;;;;;17.15;62.13;98409.91;3322917;29;20050;-73
2021/05/21 05:27:06;;;;;;;3.03;1.13;;;;;;;17.16;62.32;98414.19;3310603;29;20514;-73
2021/05/21 05:28:47;;;;;;;1.48;0.65;;;;;;;17.17;62.30;98405.06;3321470;29;20158;-74
2021/05/21 05:30:28;;;;;;;1.20;0.75;;;;;;;17.18;62.08;98402.09;3322948;29;20137;-75
2021/05/21 05:32:09;;;;;;;4.18;0.80;;;;;;;17.23;61.94;98407.47;3323199;29;20548;-72
2021/05/21 05:33:50;;;;;;;0.77;0.77;;;;;;;17.25;61.99;98404.53;3322761;29;20054;-75
2021/05/21 05:35:30;;;;;;;3.38;0.95;;;;;;;17.26;61.99;98416.91;3316838;29;20038;-72
2021/05/21 05:37:11;;;;;;;3.20;0.90;;;;;;;17.27;61.88;98412.31;3323787;29;20121;-72
2021/05/21 05:38:52;;;;;;;0.82;0.75;;;;;;;17.27;61.88;98412.31;3323822;29;20046;-72
2021/05/21 05:40:33;;;;;;;1.35;0.70;;;;;;;17.25;62.26;98414.50;3323874;29;20091;-72
2021/05/21 05:42:14;;;;;;;1.10;0.80;;;;;;;17.26;62.19;98411.50;3323405;29;20085;-72
2021/05/21 05:43:55;;;;;;;4.60;0.70;;;;;;;17.23;62.18;98414.75;3323015;29;20426;-72
2021/05/21 05:45:35;;;;;;;0.80;0.80;;;;;;;17.23;62.32;98425.53;3323470;29;20072;-73
2021/05/21 05:47:16;;;;;;;1.50;0.88;;;;;;;17.21;62.43;98420.38;3323907;29;20110;-73
2021/05/21 05:48:57;;;;;;;0.85;0.60;;;;;;;17.21;62.71;98414.19;3322529;29;20059;-73
2021/05/21 05:50:37;;;;;;;4.05;0.80;;;;;;;17.22;62.66;98413.13;3317826;29;20091;-73
2021/05/21 05:52:18;;;;;;;6.03;1.10;;;;;;;17.28;62.38;98416.63;3321401;29;20070;-74
2021/05/21 05:53:59;;;;;;;1.70;0.90;;;;;;;17.36;62.54;98422.28;3323568;29;20073;-72
2021/05/21 05:55:41;;;;;;;0.50;0.50;;;;;;;17.37;62.40;98418.53;3310374;29;20554;-70
2021/05/21 05:57:21;;;;;;;;;;;;;;;17.50;61.87;98427.13;3321808;29;20042;-72
2021/05/21 05:59:02;;;;;;;2.13;0.75;;;;;;;17.43;62.21;98422.81;3323752;29;19943;-72
2021/05/21 06:00:43;;;;;;;0.93;0.70;;;;;;;17.42;62.69;98415.84;3329868;29;20418;-73
2021/05/21 06:02:24;;;;;;;2.95;0.85;;;;;;;17.42;62.88;98420.38;3325464;29;20038;-72
2021/05/21 06:04:05;;;;;;;2.05;0.68;;;;;;;17.41;62.99;98424.16;3323734;29;20050;-72
2021/05/21 06:05:45;;;;;;;6.05;1.17;;;;;;;17.38;63.29;98417.44;3322875;29;20148;-73
2021/05/21 06:07:26;;;;;;;0.70;0.70;;;;;;;17.38;63.06;98412.06;3323030;29;20039;-73
2021/05/21 06:09:09;;;;;;;1.67;0.80;;;;;;;17.37;62.31;98415.84;3323450;29;20133;-72
2021/05/21 06:10:53;;;;;;;1.58;0.85;;;;;;;17.33;62.53;98425.53;3322295;29;20054;-72
2021/05/21 06:12:34;;;;;;;1.63;0.77;;;;;;;17.29;62.11;98424.44;3316761;29;20136;-71
2021/05/21 06:14:26;;;;;;;2.42;1.08;;;;;;;17.25;62.61;98431.44;3323177;29;20079;-72
2021/05/21 06:16:07;;;;;;;2.25;1.10;;;;;;;17.25;62.45;98428.75;3319087;29;20129;-72
2021/05/21 06:17:54;;;;;;;2.65;1.00;;;;;;;17.20;62.17;98417.97;3321207;29;20089;-73
2021/05/21 06:19:35;;;;;;;2.22;0.80;;;;;;;17.33;62.10;98438.19;3320942;29;20139;-72
2021/05/21 06:21:16;;;;;;;7.03;1.30;;;;;;;17.33;61.91;98438.19;3321392;29;20104;-73
2021/05/21 06:22:58;;;;;;;5.03;1.00;;;;;;;17.30;62.16;98444.91;3314792;29;20531;-72
2021/05/21 06:24:40;;;;;;;6.72;1.17;;;;;;;17.29;61.85;98448.66;3323490;29;20571;-73
2021/05/21 06:28:05;;;;;;;2.55;0.80;;;;;;;17.39;61.96;98453.25;3322811;29;20434;-73
2021/05/21 06:29:46;;;;;;;2.83;0.70;;;;;;;17.41;62.04;98445.72;3320704;29;20137;-72
2021/05/21 06:31:27;;;;;;;2.47;0.98;;;;;;;17.48;61.46;98445.44;3325888;29;20131;-75
2021/05/21 06:33:08;;;;;;;6.40;0.68;;;;;;;17.53;61.70;98445.44;3325633;29;20436;-72
2021/05/21 06:34:49;;;;;;;8.68;1.40;;;;;;;17.55;61.09;98454.06;3325459;29;20042;-74
2021/05/21 06:36:29;;;;;;;14.60;1.42;;;;;;;17.54;61.24;98444.38;3311900;29;20054;-73
2021/05/21 06:38:10;;;;;;;4.15;1.23;;;;;;;17.46;61.34;98453.00;3322892;29;20460;-72
2021/05/21 06:39:51;;;;;;;4.57;1.63;;;;;;;17.42;61.27;98452.72;3325494;29;20046;-72
2021/05/21 06:41:31;;;;;;;4.10;0.85;;;;;;;17.42;62.06;98453.53;3325762;29;20050;-72
2021/05/21 06:43:13;;;;;;;4.07;1.15;;;;;;;17.44;62.12;98448.66;3325330;29;20057;-72
2021/05/21 06:44:53;;;;;;;3.13;1.07;;;;;;;17.58;62.03;98454.34;3325239;29;20103;-72
2021/05/21 06:46:34;;;;;;;2.80;1.10;;;;;;;17.71;62.38;98449.44;3325554;29;20390;-72
2021/05/21 06:48:15;;;;;;;3.08;1.30;;;;;;;17.82;61.86;98457.28;3324858;29;20050;-72
2021/05/21 06:49:55;;;;;;;4.75;1.00;;;;;;;17.95;61.38;98449.72;3325173;29;20058;-73
2021/05/21 06:51:36;;;;;;;2.83;1.33;;;;;;;18.00;61.21;98457.81;3325883;29;20046;-72
2021/05/21 06:53:19;;;;;;;1.13;1.00;;;;;;;17.99;61.08;98465.09;3324856;29;20049;-72
2021/05/21 06:55:00;;;;;;;1.15;0.70;;;;;;;17.94;60.93;98458.88;3312228;29;20039;-74
2021/05/21 06:56:41;;;;;;;1.23;0.80;;;;;;;18.03;61.14;98471.53;3324132;29;20034;-74
2021/05/21 06:58:24;;;;;;;2.55;1.00;;;;;;;18.03;60.58;98468.84;3324589;29;20296;-73
2021/05/21 07:00:05;;;;;;;1.00;0.98;;;;;;;18.05;60.61;98457.78;3324951;29;20079;-72
2021/05/21 07:01:47;;;;;;;3.67;0.88;;;;;;;18.19;60.71;98475.00;3323896;29;20084;-74
2021/05/21 07:03:28;;;;;;;0.75;0.68;;;;;;;18.27;60.00;98471.72;3323280;29;20038;-73
2021/05/21 07:05:09;;;;;;;1.50;0.80;;;;;;;18.28;59.97;98469.88;3325011;29;20125;-74
2021/05/21 07:06:50;;;;;;;0.70;0.70;;;;;;;18.35;60.04;98467.66;3324156;29;20076;-73
2021/05/21 07:08:31;;;;;;;0.88;0.70;;;;;;;18.37;59.98;98472.78;3324467;29;20041;-72
2021/05/21 07:10:12;;;;;;;0.60;0.60;;;;;;;18.43;59.88;98479.78;3323718;29;20133;-74
2021/05/21 07:11:53;;;;;;;1.83;0.70;;;;;;;18.48;59.43;98479.75;3324676;29;20065;-73
2021/05/21 07:13:33;;;;;;;2.08;0.70;;;;;;;18.50;59.40;98480.28;3325458;29;20046;-72
2021/05/21 07:15:14;;;;;;;2.05;0.70;;;;;;;18.47;59.14;98478.94;3325288;29;20053;-71
2021/05/21 07:16:55;;;;;;;5.43;1.10;;;;;;;18.47;58.72;98484.34;3323814;29;20121;-73
2021/05/21 07:18:35;;;;;;;0.75;0.60;;;;;;;18.44;59.01;98489.50;3322749;29;20100;-71
2021/05/21 07:20:16;;;;;;;0.60;0.60;;;;;;;18.43;59.13;98493.25;3324492;29;20053;-74
2021/05/21 07:21:57;;;;;;;5.22;0.90;;;;;;;18.43;58.73;98493.25;3324534;29;20061;-72
2021/05/21 07:23:37;;;;;;;4.35;1.05;;;;;;;18.42;58.73;98480.88;3324881;29;20078;-72
2021/05/21 07:25:18;;;;;;;1.83;0.80;;;;;;;18.46;58.61;98498.13;3324143;29;20053;-73
2021/05/21 07:26:59;;;;;;;1.45;0.70;;;;;;;18.48;58.81;98493.25;3319692;29;20042;-72
2021/05/21 07:28:39;;;;;;;0.75;0.70;;;;;;;18.48;58.38;98504.03;3324693;29;20042;-72
2021/05/21 07:30:21;;;;;;;1.00;1.00;;;;;;;18.48;58.45;98507.56;3325041;29;20054;-72
2021/05/21 07:32:02;;;;;;;1.75;0.77;;;;;;;18.49;58.48;98492.97;3326275;29;20046;-73
2021/05/21 07:33:43;;;;;;;5.00;1.00;;;;;;;18.51;58.54;98509.72;3325505;29;20427;-71
2021/05/21 07:35:25;;;;;;;1.05;0.65;;;;;;;18.52;58.19;98505.91;3325589;29;20049;-72
2021/05/21 07:37:06;;;;;;;1.70;0.85;;;;;;;18.58;58.42;98511.28;3325593;29;20049;-73
2021/05/21 07:38:55;;;;;;;3.70;0.70;;;;;;;18.71;58.12;98511.50;3324328;29;20048;-71
2021/05/21 07:40:36;;;;;;;1.48;0.70;;;;;;;18.76;57.73;98501.81;3325556;29;20050;-71
2021/05/21 07:42:30;;;;;;;3.67;1.00;;;;;;;18.83;57.51;98513.13;3325602;29;20050;-73
2021/05/21 07:44:11;;;;;;;10.45;1.00;;;;;;;18.88;57.76;98513.09;3324207;29;20071;-72
2021/05/21 07:45:52;;;;;;;7.00;0.70;;;;;;;18.86;57.37;98510.66;3323957;29;20038;-73
2021/05/21 07:47:33;;;;;;;2.47;0.80;;;;;;;18.78;57.61;98515.84;3324411;29;20537;-73
2021/05/21 07:49:14;;;;;;;1.65;1.15;;;;;;;18.71;57.78;98519.59;3323684;29;20154;-72
2021/05/21 07:50:54;;;;;;;2.63;0.80;;;;;;;18.71;57.71;98522.28;3321149;29;20053;-73
2021/05/21 07:52:35;;;;;;;4.80;0.98;;;;;;;18.71;57.84;98522.28;3323823;29;20051;-72
2021/05/21 07:54:17;;;;;;;5.50;1.40;;;;;;;18.75;57.66;98519.91;3324888;29;20042;-71
2021/05/21 07:55:58;;;;;;;8.02;0.95;;;;;;;18.84;57.76;98512.00;3324954;29;20448;-76
2021/05/21 07:57:38;;;;;;;3.27;0.60;;;;;;;18.88;56.99;98515.78;3324249;29;20532;-73
2021/05/21 07:59:19;;;;;;;4.80;1.10;;;;;;;18.94;57.23;98528.16;3324655;29;20034;-75